»·PEaware :: AAL1494 KPHX-KDEN

AAL1494 :: KPHX-KDEN

FLIGHT INFORMATION

Flight Status: Arrived
Operator:
American Airlines
More flights by this operator :: More flights under this callsign
Pilot: Alfredo R. (12181)
Aircraft: BOEING 737-800
(B738)
More flights by this aircraft type
Origin: KPHX Phoenix Sky Harbor Intl
United States
Destination: KDEN Denver Intl
United States
More flights between these airports :: More routes between these airports
Route: YOTES5 YOOPR OURAY LDORA2
File this flight plan on PilotEdge
Remarks:
Altitude:
(Current/Filed)
37,000ft
Speed:
(Current/Filed)
460kts
Departed: 22-Sep-17 07:16 PM
Arrived: 22-Sep-17 08:32 PM
Distance/Time
Traveled:
522nm/1:16
Distance/Time
To Go:
Arrived

Flight Plot

Page will automatically refresh every two minutes.

Flight plan parsing failed; only flown route is shown


Map Options




Map Legend


Flown Route
Filed Route
Departure Airport
Arrival Airport
Navaid (VOR, NDB)
Fix

Horizontal Profiles

Position Reports

Time Latitude Longitude Heading Altitude Ground
Speed
22-Sep-17 18:45 33.433581 -112.008313 322 1141ft 0kts
22-Sep-17 18:46 33.433581 -112.008313 322 1141ft 0kts
22-Sep-17 18:47 33.433581 -112.008313 322 1141ft 0kts
22-Sep-17 18:48 33.433581 -112.008313 322 1141ft 0kts
22-Sep-17 18:49 33.433581 -112.008313 322 1141ft 0kts
22-Sep-17 18:50 33.433581 -112.008313 322 1141ft 0kts
22-Sep-17 18:51 33.433581 -112.008313 322 1141ft 0kts
22-Sep-17 18:52 33.433581 -112.008313 322 1141ft 0kts
22-Sep-17 18:53 33.433581 -112.008313 322 1141ft 0kts
22-Sep-17 18:54 33.433581 -112.008313 322 1141ft 0kts
22-Sep-17 18:55 33.433581 -112.008313 322 1141ft 0kts
22-Sep-17 18:56 33.433581 -112.008313 322 1141ft 0kts
22-Sep-17 18:57 33.433581 -112.008313 322 1141ft 0kts
22-Sep-17 18:58 33.433581 -112.008313 322 1141ft 0kts
22-Sep-17 18:59 33.433581 -112.008313 322 1141ft 0kts
22-Sep-17 19:00 33.433573 -112.008306 322 1141ft 0kts
22-Sep-17 19:01 33.433348 -112.008105 322 1142ft 1kts
22-Sep-17 19:02 33.433022 -112.008038 18 1141ft 1kts
22-Sep-17 19:03 33.432870 -112.008225 87 1141ft 0kts
22-Sep-17 19:04 33.432870 -112.008225 87 1141ft 0kts
22-Sep-17 19:05 33.432870 -112.008225 87 1141ft 0kts
22-Sep-17 19:06 33.432870 -112.008225 87 1141ft 0kts
22-Sep-17 19:07 33.432870 -112.008225 87 1141ft 0kts
22-Sep-17 19:08 33.432870 -112.008225 87 1141ft 0kts
22-Sep-17 19:09 33.432870 -112.008225 87 1141ft 0kts
22-Sep-17 19:10 33.432870 -112.008225 87 1141ft 0kts
22-Sep-17 19:11 33.432726 -112.007720 138 1141ft 2kts
22-Sep-17 19:12 33.432131 -112.006355 90 1141ft 7kts
22-Sep-17 19:13 33.432139 -112.002997 90 1141ft 12kts
22-Sep-17 19:14 33.432129 -111.998299 90 1141ft 16kts
22-Sep-17 19:15 33.432127 -111.994257 90 1141ft 7kts
22-Sep-17 19:16 33.432035 -111.993694 124 1141ft 0kts
22-Sep-17 19:17 33.431900 -111.993538 150 1141ft 1kts
22-Sep-17 19:18 33.431059 -111.993972 256 1141ft 6kts
22-Sep-17 19:19 33.431029 -111.994916 269 1141ft 9kts
22-Sep-17 19:20 33.431041 -112.021941 269 1259ft 160kts
22-Sep-17 19:21 33.432149 -112.077066 282 3125ft 183kts
22-Sep-17 19:22 33.475760 -112.124465 319 4420ft 258kts
22-Sep-17 19:23 33.538981 -112.170215 351 6753ft 299kts
22-Sep-17 19:24 33.621596 -112.154762 33 9395ft 316kts
22-Sep-17 19:25 33.687259 -112.080195 49 11146ft 356kts
22-Sep-17 19:26 33.755049 -111.990692 54 13583ft 373kts
22-Sep-17 19:27 33.819270 -111.890262 55 15782ft 397kts
22-Sep-17 19:28 33.887801 -111.781919 55 18226ft 422kts
22-Sep-17 19:29 33.960167 -111.667204 55 20535ft 444kts
22-Sep-17 19:30 34.050908 -111.564270 32 22580ft 463kts
22-Sep-17 19:31 34.159628 -111.479545 30 24202ft 478kts
22-Sep-17 19:32 34.272173 -111.392805 30 25754ft 490kts
22-Sep-17 19:33 34.388215 -111.303081 31 27223ft 498kts
22-Sep-17 19:34 34.503748 -111.213441 31 29032ft 491kts
22-Sep-17 19:35 34.617846 -111.124674 30 30397ft 490kts
22-Sep-17 19:36 34.736391 -111.046161 25 31665ft 485kts
22-Sep-17 19:37 34.854789 -110.968543 25 32571ft 488kts
22-Sep-17 19:38 34.972905 -110.890743 25 33621ft 485kts
22-Sep-17 19:39 35.091011 -110.812708 25 34522ft 483kts
22-Sep-17 19:40 35.207966 -110.735195 26 35259ft 481kts
22-Sep-17 19:41 35.325047 -110.657336 25 35631ft 487kts
22-Sep-17 19:42 35.443525 -110.578249 26 36271ft 485kts
22-Sep-17 19:43 35.555801 -110.503075 25 36732ft 486kts
22-Sep-17 19:44 35.669652 -110.413343 43 36958ft 495kts
22-Sep-17 19:45 35.762553 -110.286266 51 36948ft 509kts
22-Sep-17 19:46 35.856375 -110.153256 51 36958ft 525kts
22-Sep-17 19:47 35.952962 -110.015916 51 37038ft 539kts
22-Sep-17 19:48 36.051631 -109.875061 51 37028ft 545kts
22-Sep-17 19:49 36.150074 -109.733919 51 37015ft 544kts
22-Sep-17 19:50 36.247960 -109.592997 51 37019ft 542kts
22-Sep-17 19:51 36.345912 -109.451389 51 37019ft 544kts
22-Sep-17 19:52 36.443802 -109.309275 52 37008ft 543kts
22-Sep-17 19:53 36.541324 -109.167030 52 36918ft 540kts
22-Sep-17 19:54 36.637476 -109.026252 52 36931ft 542kts
22-Sep-17 19:55 36.734373 -108.883778 52 36935ft 541kts
22-Sep-17 19:56 36.831614 -108.740182 52 36941ft 549kts
22-Sep-17 19:57 36.928650 -108.596238 52 36937ft 546kts
22-Sep-17 19:58 37.025720 -108.451635 52 36973ft 546kts
22-Sep-17 19:59 37.120519 -108.309823 53 36937ft 546kts
22-Sep-17 20:00 37.216977 -108.164816 52 37005ft 546kts
22-Sep-17 20:01 37.310476 -108.023772 53 37011ft 552kts
22-Sep-17 20:02 37.404123 -107.881834 53 37008ft 550kts
22-Sep-17 20:03 37.499294 -107.736961 53 37010ft 550kts
22-Sep-17 20:04 37.593988 -107.592160 52 37091ft 549kts
22-Sep-17 20:05 37.688782 -107.446577 52 37121ft 549kts
22-Sep-17 20:06 37.781636 -107.303312 53 37120ft 547kts
22-Sep-17 20:07 37.875250 -107.158293 52 37231ft 541kts
22-Sep-17 20:08 37.969338 -107.011893 52 37342ft 545kts
22-Sep-17 20:09 38.064124 -106.863718 52 37075ft 543kts
22-Sep-17 20:10 38.153781 -106.722909 52 37054ft 543kts
22-Sep-17 20:11 38.246597 -106.578297 48 35750ft 534kts
22-Sep-17 20:12 38.350808 -106.451039 44 33955ft 523kts
22-Sep-17 20:13 38.449289 -106.328998 45 32365ft 530kts
22-Sep-17 20:14 38.550908 -106.202186 46 30570ft 509kts
22-Sep-17 20:15 38.647331 -106.081397 46 28858ft 505kts
22-Sep-17 20:16 38.741386 -105.963116 46 27217ft 502kts
22-Sep-17 20:17 38.834176 -105.846001 46 25755ft 484kts
22-Sep-17 20:18 38.922838 -105.733391 47 24432ft 471kts
22-Sep-17 20:19 39.011396 -105.620423 46 23004ft 449kts
22-Sep-17 20:20 39.092836 -105.516236 47 21648ft 439kts
22-Sep-17 20:21 39.171967 -105.414787 47 20248ft 426kts
22-Sep-17 20:22 39.240234 -105.326016 56 18863ft 391kts
22-Sep-17 20:23 39.271852 -105.222241 81 17576ft 359kts
22-Sep-17 20:24 39.293281 -105.114010 82 16282ft 343kts
22-Sep-17 20:25 39.313265 -105.010145 75 15152ft 329kts
22-Sep-17 20:26 39.369302 -104.942763 27 14128ft 325kts
22-Sep-17 20:27 39.435743 -104.898415 27 13045ft 305kts
22-Sep-17 20:28 39.498605 -104.851870 27 11864ft 281kts
22-Sep-17 20:29 39.555818 -104.809146 27 10629ft 249kts
22-Sep-17 20:30 39.609663 -104.770713 27 9816ft 246kts
22-Sep-17 20:31 39.660618 -104.730560 35 8712ft 226kts
22-Sep-17 20:32 39.706548 -104.683819 28 7634ft 204kts
22-Sep-17 20:33 39.752867 -104.667983 15 6929ft 177kts
22-Sep-17 20:34 39.794238 -104.661134 358 6047ft 145kts
22-Sep-17 20:35 39.833359 -104.660518 356 5439ft 132kts
22-Sep-17 20:36 39.851519 -104.660743 344 5439ft 24kts
22-Sep-17 20:37 39.855815 -104.662384 359 5439ft 9kts
22-Sep-17 20:38 39.856674 -104.662728 291 5439ft 1kts
22-Sep-17 20:39 39.856371 -104.663427 194 5438ft 4kts
22-Sep-17 20:40 39.853749 -104.663503 180 5438ft 12kts
22-Sep-17 20:41 39.852771 -104.667110 269 5439ft 12kts
22-Sep-17 20:42 39.852888 -104.670961 316 5438ft 4kts
22-Sep-17 20:43 39.853218 -104.671017 14 5438ft 1kts
22-Sep-17 20:44 39.853272 -104.670999 14 5439ft 0kts

Navigation Log

Ident Type
Flight plan parsing failed, navigation log unavailable